sensor_id;sensor_type;location;lat;lon;timestamp;temperature;humidity
81630;DHT22;71039;49.500;10.418;2023-10-08T00:01:20;19.20;48.10
81630;DHT22;71039;49.500;10.418;2023-10-08T00:03:47;19.20;48.10
81630;DHT22;71039;49.500;10.418;2023-10-08T00:06:12;19.20;48.10
81630;DHT22;71039;49.500;10.418;2023-10-08T00:08:38;19.20;48.10
81630;DHT22;71039;49.500;10.418;2023-10-08T00:11:04;19.20;48.10
81630;DHT22;71039;49.500;10.418;2023-10-08T00:13:29;19.20;48.20
81630;DHT22;71039;49.500;10.418;2023-10-08T00:15:55;19.20;48.20
81630;DHT22;71039;49.500;10.418;2023-10-08T00:18:21;19.10;48.20
81630;DHT22;71039;49.500;10.418;2023-10-08T00:20:48;19.20;48.20
81630;DHT22;71039;49.500;10.418;2023-10-08T00:23:13;19.10;48.20
81630;DHT22;71039;49.500;10.418;2023-10-08T00:25:39;19.10;48.20
81630;DHT22;71039;49.500;10.418;2023-10-08T00:28:04;19.10;48.20
81630;DHT22;71039;49.500;10.418;2023-10-08T00:30:30;19.10;48.30
81630;DHT22;71039;49.500;10.418;2023-10-08T00:32:55;19.10;48.30
81630;DHT22;71039;49.500;10.418;2023-10-08T00:35:21;19.10;48.30
81630;DHT22;71039;49.500;10.418;2023-10-08T00:37:47;19.10;48.30
81630;DHT22;71039;49.500;10.418;2023-10-08T00:40:12;19.10;48.30
81630;DHT22;71039;49.500;10.418;2023-10-08T00:42:38;19.10;48.30
81630;DHT22;71039;49.500;10.418;2023-10-08T00:45:04;19.10;48.30
81630;DHT22;71039;49.500;10.418;2023-10-08T00:47:30;19.10;48.40
81630;DHT22;71039;49.500;10.418;2023-10-08T00:49:55;19.10;48.40
81630;DHT22;71039;49.500;10.418;2023-10-08T00:52:21;19.10;48.40
81630;DHT22;71039;49.500;10.418;2023-10-08T00:54:48;19.10;48.50
81630;DHT22;71039;49.500;10.418;2023-10-08T00:57:16;19.10;48.50
81630;DHT22;71039;49.500;10.418;2023-10-08T00:59:43;19.10;48.50
81630;DHT22;71039;49.500;10.418;2023-10-08T01:02:08;19.00;48.60
81630;DHT22;71039;49.500;10.418;2023-10-08T01:04:34;19.00;48.60
81630;DHT22;71039;49.500;10.418;2023-10-08T01:07:03;19.00;48.70
81630;DHT22;71039;49.500;10.418;2023-10-08T01:09:29;19.00;48.70
81630;DHT22;71039;49.500;10.418;2023-10-08T01:12:14;19.00;48.80
81630;DHT22;71039;49.500;10.418;2023-10-08T01:14:40;19.00;48.90
81630;DHT22;71039;49.500;10.418;2023-10-08T01:17:06;19.00;48.80
81630;DHT22;71039;49.500;10.418;2023-10-08T01:19:31;19.00;48.90
81630;DHT22;71039;49.500;10.418;2023-10-08T01:21:57;18.90;48.90
81630;DHT22;71039;49.500;10.418;2023-10-08T01:24:22;19.00;48.90
81630;DHT22;71039;49.500;10.418;2023-10-08T01:26:48;18.90;49.00
81630;DHT22;71039;49.500;10.418;2023-10-08T01:29:13;18.90;49.00
81630;DHT22;71039;49.500;10.418;2023-10-08T01:31:39;18.90;49.00
81630;DHT22;71039;49.500;10.418;2023-10-08T01:34:05;18.90;49.10
81630;DHT22;71039;49.500;10.418;2023-10-08T01:36:31;18.90;49.10
81630;DHT22;71039;49.500;10.418;2023-10-08T01:38:56;18.90;49.10
81630;DHT22;71039;49.500;10.418;2023-10-08T01:41:22;18.90;49.20
81630;DHT22;71039;49.500;10.418;2023-10-08T01:43:48;18.80;49.20
81630;DHT22;71039;49.500;10.418;2023-10-08T01:46:14;18.80;49.20
81630;DHT22;71039;49.500;10.418;2023-10-08T01:48:39;18.80;49.20
81630;DHT22;71039;49.500;10.418;2023-10-08T01:51:05;18.80;49.30
81630;DHT22;71039;49.500;10.418;2023-10-08T01:53:31;18.70;49.30
81630;DHT22;71039;49.500;10.418;2023-10-08T01:55:57;18.70;49.30
81630;DHT22;71039;49.500;10.418;2023-10-08T01:58:22;18.70;49.40
81630;DHT22;71039;49.500;10.418;2023-10-08T02:00:49;18.70;49.40
81630;DHT22;71039;49.500;10.418;2023-10-08T02:03:16;18.60;49.50
81630;DHT22;71039;49.500;10.418;2023-10-08T02:05:42;18.60;49.60
81630;DHT22;71039;49.500;10.418;2023-10-08T02:08:09;18.60;49.70
81630;DHT22;71039;49.500;10.418;2023-10-08T02:10:40;18.60;49.70
81630;DHT22;71039;49.500;10.418;2023-10-08T02:13:07;18.50;49.70
81630;DHT22;71039;49.500;10.418;2023-10-08T02:15:33;18.50;49.80
81630;DHT22;71039;49.500;10.418;2023-10-08T02:17:59;18.50;49.90
81630;DHT22;71039;49.500;10.418;2023-10-08T02:20:24;18.50;49.90
81630;DHT22;71039;49.500;10.418;2023-10-08T02:22:50;18.40;50.00
81630;DHT22;71039;49.500;10.418;2023-10-08T02:25:16;18.40;50.00
81630;DHT22;71039;49.500;10.418;2023-10-08T02:27:41;18.40;50.10
81630;DHT22;71039;49.500;10.418;2023-10-08T02:30:07;18.40;50.20
81630;DHT22;71039;49.500;10.418;2023-10-08T02:32:33;18.40;50.20
81630;DHT22;71039;49.500;10.418;2023-10-08T02:34:59;18.40;50.30
81630;DHT22;71039;49.500;10.418;2023-10-08T02:37:24;18.30;50.40
81630;DHT22;71039;49.500;10.418;2023-10-08T02:39:50;18.30;50.40
81630;DHT22;71039;49.500;10.418;2023-10-08T02:42:15;18.30;50.50
81630;DHT22;71039;49.500;10.418;2023-10-08T02:44:41;18.30;50.50
81630;DHT22;71039;49.500;10.418;2023-10-08T02:47:06;18.30;50.60
81630;DHT22;71039;49.500;10.418;2023-10-08T02:49:32;18.30;50.60
81630;DHT22;71039;49.500;10.418;2023-10-08T02:51:57;18.30;50.70
81630;DHT22;71039;49.500;10.418;2023-10-08T02:54:23;18.30;50.70
81630;DHT22;71039;49.500;10.418;2023-10-08T02:56:51;18.30;50.70
81630;DHT22;71039;49.500;10.418;2023-10-08T02:59:17;18.20;50.80
81630;DHT22;71039;49.500;10.418;2023-10-08T03:01:43;18.30;50.80
81630;DHT22;71039;49.500;10.418;2023-10-08T03:04:09;18.30;50.80
81630;DHT22;71039;49.500;10.418;2023-10-08T03:06:35;18.20;50.80
81630;DHT22;71039;49.500;10.418;2023-10-08T03:09:00;18.20;50.90
81630;DHT22;71039;49.500;10.418;2023-10-08T03:11:26;18.20;50.90
81630;DHT22;71039;49.500;10.418;2023-10-08T03:13:52;18.20;51.00
81630;DHT22;71039;49.500;10.418;2023-10-08T03:16:18;18.20;51.00
81630;DHT22;71039;49.500;10.418;2023-10-08T03:18:44;18.20;51.10
81630;DHT22;71039;49.500;10.418;2023-10-08T03:21:09;18.20;51.10
81630;DHT22;71039;49.500;10.418;2023-10-08T03:23:35;18.20;51.20
81630;DHT22;71039;49.500;10.418;2023-10-08T03:26:02;18.20;51.20
81630;DHT22;71039;49.500;10.418;2023-10-08T03:28:28;18.20;51.20
81630;DHT22;71039;49.500;10.418;2023-10-08T03:30:55;18.10;51.50
81630;DHT22;71039;49.500;10.418;2023-10-08T03:33:21;18.20;51.20
81630;DHT22;71039;49.500;10.418;2023-10-08T03:35:46;18.20;51.20
81630;DHT22;71039;49.500;10.418;2023-10-08T03:38:12;18.20;51.30
81630;DHT22;71039;49.500;10.418;2023-10-08T03:40:37;18.20;51.40
81630;DHT22;71039;49.500;10.418;2023-10-08T03:43:03;18.10;51.50
81630;DHT22;71039;49.500;10.418;2023-10-08T03:45:28;18.10;51.50
81630;DHT22;71039;49.500;10.418;2023-10-08T03:47:54;18.10;51.50
81630;DHT22;71039;49.500;10.418;2023-10-08T03:50:20;18.10;51.50
81630;DHT22;71039;49.500;10.418;2023-10-08T03:52:45;18.10;51.60
81630;DHT22;71039;49.500;10.418;2023-10-08T03:55:10;18.10;51.70
81630;DHT22;71039;49.500;10.418;2023-10-08T03:57:36;18.10;51.70
81630;DHT22;71039;49.500;10.418;2023-10-08T04:00:02;18.10;51.70
81630;DHT22;71039;49.500;10.418;2023-10-08T04:02:38;18.10;51.80
81630;DHT22;71039;49.500;10.418;2023-10-08T04:05:04;18.10;51.80
81630;DHT22;71039;49.500;10.418;2023-10-08T04:07:29;18.10;51.90
81630;DHT22;71039;49.500;10.418;2023-10-08T04:09:57;18.10;51.90
81630;DHT22;71039;49.500;10.418;2023-10-08T04:12:22;18.10;51.90
81630;DHT22;71039;49.500;10.418;2023-10-08T04:14:48;18.10;51.90
81630;DHT22;71039;49.500;10.418;2023-10-08T04:17:13;18.10;52.00
81630;DHT22;71039;49.500;10.418;2023-10-08T04:19:39;18.00;51.90
81630;DHT22;71039;49.500;10.418;2023-10-08T04:22:04;18.00;51.90
81630;DHT22;71039;49.500;10.418;2023-10-08T04:24:30;18.00;51.90
81630;DHT22;71039;49.500;10.418;2023-10-08T04:26:56;18.00;51.90
81630;DHT22;71039;49.500;10.418;2023-10-08T04:29:22;18.00;51.90
81630;DHT22;71039;49.500;10.418;2023-10-08T04:31:47;18.00;51.90
81630;DHT22;71039;49.500;10.418;2023-10-08T04:34:13;17.90;52.00
81630;DHT22;71039;49.500;10.418;2023-10-08T04:36:38;17.90;52.00
81630;DHT22;71039;49.500;10.418;2023-10-08T04:39:04;17.80;52.10
81630;DHT22;71039;49.500;10.418;2023-10-08T04:41:30;17.80;52.20
81630;DHT22;71039;49.500;10.418;2023-10-08T04:43:55;17.80;52.30
81630;DHT22;71039;49.500;10.418;2023-10-08T04:46:21;17.80;52.40
81630;DHT22;71039;49.500;10.418;2023-10-08T04:48:47;17.80;52.50
81630;DHT22;71039;49.500;10.418;2023-10-08T04:51:13;17.80;52.50
81630;DHT22;71039;49.500;10.418;2023-10-08T04:53:39;17.80;52.60
81630;DHT22;71039;49.500;10.418;2023-10-08T04:56:05;17.80;52.70
81630;DHT22;71039;49.500;10.418;2023-10-08T04:58:32;17.80;52.70
81630;DHT22;71039;49.500;10.418;2023-10-08T05:00:58;17.80;52.80
81630;DHT22;71039;49.500;10.418;2023-10-08T05:03:24;17.80;52.80
81630;DHT22;71039;49.500;10.418;2023-10-08T05:05:49;17.80;52.90
81630;DHT22;71039;49.500;10.418;2023-10-08T05:08:15;17.80;52.90
81630;DHT22;71039;49.500;10.418;2023-10-08T05:10:40;17.80;53.00
81630;DHT22;71039;49.500;10.418;2023-10-08T05:13:06;17.80;53.00
81630;DHT22;71039;49.500;10.418;2023-10-08T05:15:32;17.80;53.10
81630;DHT22;71039;49.500;10.418;2023-10-08T05:17:57;17.80;53.10
81630;DHT22;71039;49.500;10.418;2023-10-08T05:20:23;17.80;53.10
81630;DHT22;71039;49.500;10.418;2023-10-08T05:22:49;17.70;53.20
81630;DHT22;71039;49.500;10.418;2023-10-08T05:25:14;17.80;53.20
81630;DHT22;71039;49.500;10.418;2023-10-08T05:27:42;17.80;53.20
81630;DHT22;71039;49.500;10.418;2023-10-08T05:30:08;17.80;53.20
81630;DHT22;71039;49.500;10.418;2023-10-08T05:32:34;17.80;53.30
81630;DHT22;71039;49.500;10.418;2023-10-08T05:35:00;17.70;53.30
81630;DHT22;71039;49.500;10.418;2023-10-08T05:37:26;17.70;53.40
81630;DHT22;71039;49.500;10.418;2023-10-08T05:39:51;17.70;53.30
81630;DHT22;71039;49.500;10.418;2023-10-08T05:42:17;17.70;53.40
81630;DHT22;71039;49.500;10.418;2023-10-08T05:44:44;17.70;53.40
81630;DHT22;71039;49.500;10.418;2023-10-08T05:47:09;17.70;53.50
81630;DHT22;71039;49.500;10.418;2023-10-08T05:49:35;17.60;53.50
81630;DHT22;71039;49.500;10.418;2023-10-08T05:52:01;17.60;53.50
81630;DHT22;71039;49.500;10.418;2023-10-08T05:54:26;17.60;53.60
81630;DHT22;71039;49.500;10.418;2023-10-08T05:56:56;17.60;53.60
81630;DHT22;71039;49.500;10.418;2023-10-08T05:59:21;17.70;53.70
81630;DHT22;71039;49.500;10.418;2023-10-08T06:01:47;17.70;53.70
81630;DHT22;71039;49.500;10.418;2023-10-08T06:04:13;17.60;53.80
81630;DHT22;71039;49.500;10.418;2023-10-08T06:06:38;17.70;53.90
81630;DHT22;71039;49.500;10.418;2023-10-08T06:09:04;17.70;53.90
81630;DHT22;71039;49.500;10.418;2023-10-08T06:11:32;17.70;54.00
81630;DHT22;71039;49.500;10.418;2023-10-08T06:13:58;17.80;54.00
81630;DHT22;71039;49.500;10.418;2023-10-08T06:16:23;17.80;54.10
81630;DHT22;71039;49.500;10.418;2023-10-08T06:18:49;17.80;54.10
81630;DHT22;71039;49.500;10.418;2023-10-08T06:21:14;17.80;54.10
81630;DHT22;71039;49.500;10.418;2023-10-08T06:23:41;17.80;54.10
81630;DHT22;71039;49.500;10.418;2023-10-08T06:26:06;17.80;54.10
81630;DHT22;71039;49.500;10.418;2023-10-08T06:28:32;17.80;54.10
81630;DHT22;71039;49.500;10.418;2023-10-08T06:30:58;17.80;54.10
81630;DHT22;71039;49.500;10.418;2023-10-08T06:33:24;17.90;54.10
81630;DHT22;71039;49.500;10.418;2023-10-08T06:35:50;17.90;54.20
81630;DHT22;71039;49.500;10.418;2023-10-08T06:38:15;17.90;54.20
81630;DHT22;71039;49.500;10.418;2023-10-08T06:40:42;18.00;54.20
81630;DHT22;71039;49.500;10.418;2023-10-08T06:43:08;18.00;54.20
81630;DHT22;71039;49.500;10.418;2023-10-08T06:45:33;18.00;54.20
81630;DHT22;71039;49.500;10.418;2023-10-08T06:47:59;18.00;54.30
81630;DHT22;71039;49.500;10.418;2023-10-08T06:50:24;18.00;54.30
81630;DHT22;71039;49.500;10.418;2023-10-08T06:52:50;18.00;54.30
81630;DHT22;71039;49.500;10.418;2023-10-08T06:55:15;18.00;54.30
81630;DHT22;71039;49.500;10.418;2023-10-08T06:57:41;18.00;54.30
81630;DHT22;71039;49.500;10.418;2023-10-08T07:00:07;18.00;54.40
81630;DHT22;71039;49.500;10.418;2023-10-08T07:02:33;18.10;54.40
81630;DHT22;71039;49.500;10.418;2023-10-08T07:04:58;18.10;54.50
81630;DHT22;71039;49.500;10.418;2023-10-08T07:07:24;18.10;54.60
81630;DHT22;71039;49.500;10.418;2023-10-08T07:09:49;18.10;54.70
81630;DHT22;71039;49.500;10.418;2023-10-08T07:12:15;18.20;54.80
81630;DHT22;71039;49.500;10.418;2023-10-08T07:14:40;18.20;55.00
81630;DHT22;71039;49.500;10.418;2023-10-08T07:17:06;18.30;55.00
81630;DHT22;71039;49.500;10.418;2023-10-08T07:19:31;18.40;55.00
81630;DHT22;71039;49.500;10.418;2023-10-08T07:21:57;18.40;55.00
81630;DHT22;71039;49.500;10.418;2023-10-08T07:24:22;18.50;55.10
81630;DHT22;71039;49.500;10.418;2023-10-08T07:26:48;18.60;55.00
81630;DHT22;71039;49.500;10.418;2023-10-08T07:29:15;18.60;55.10
81630;DHT22;71039;49.500;10.418;2023-10-08T07:31:41;18.70;55.10
81630;DHT22;71039;49.500;10.418;2023-10-08T07:34:06;18.80;55.20
81630;DHT22;71039;49.500;10.418;2023-10-08T07:36:32;18.90;55.30
81630;DHT22;71039;49.500;10.418;2023-10-08T07:38:57;19.00;55.40
81630;DHT22;71039;49.500;10.418;2023-10-08T07:41:23;19.10;55.40
81630;DHT22;71039;49.500;10.418;2023-10-08T07:43:49;19.20;55.40
81630;DHT22;71039;49.500;10.418;2023-10-08T07:46:15;19.40;55.30
81630;DHT22;71039;49.500;10.418;2023-10-08T07:48:40;19.50;55.20
81630;DHT22;71039;49.500;10.418;2023-10-08T07:51:06;19.60;55.00
81630;DHT22;71039;49.500;10.418;2023-10-08T07:53:31;19.70;54.80
81630;DHT22;71039;49.500;10.418;2023-10-08T07:56:00;19.90;54.70
81630;DHT22;71039;49.500;10.418;2023-10-08T07:58:25;20.00;54.40
81630;DHT22;71039;49.500;10.418;2023-10-08T08:00:51;20.10;54.30
81630;DHT22;71039;49.500;10.418;2023-10-08T08:03:20;20.20;54.20
81630;DHT22;71039;49.500;10.418;2023-10-08T08:05:46;20.30;54.00
81630;DHT22;71039;49.500;10.418;2023-10-08T08:08:12;20.30;53.90
81630;DHT22;71039;49.500;10.418;2023-10-08T08:10:38;20.50;53.80
81630;DHT22;71039;49.500;10.418;2023-10-08T08:13:04;20.50;53.70
81630;DHT22;71039;49.500;10.418;2023-10-08T08:15:30;20.60;53.80
81630;DHT22;71039;49.500;10.418;2023-10-08T08:17:55;20.70;54.00
81630;DHT22;71039;49.500;10.418;2023-10-08T08:20:21;20.80;54.20
81630;DHT22;71039;49.500;10.418;2023-10-08T08:22:46;21.00;54.30
81630;DHT22;71039;49.500;10.418;2023-10-08T08:25:12;21.10;54.40
81630;DHT22;71039;49.500;10.418;2023-10-08T08:27:37;21.30;54.40
81630;DHT22;71039;49.500;10.418;2023-10-08T08:30:03;21.50;54.30
81630;DHT22;71039;49.500;10.418;2023-10-08T08:32:29;21.70;54.00
81630;DHT22;71039;49.500;10.418;2023-10-08T08:34:54;21.90;53.50
81630;DHT22;71039;49.500;10.418;2023-10-08T08:37:20;22.10;53.00
81630;DHT22;71039;49.500;10.418;2023-10-08T08:39:45;22.20;52.50
81630;DHT22;71039;49.500;10.418;2023-10-08T08:42:11;22.40;52.10
81630;DHT22;71039;49.500;10.418;2023-10-08T08:44:38;22.50;51.80
81630;DHT22;71039;49.500;10.418;2023-10-08T08:47:04;22.60;51.70
81630;DHT22;71039;49.500;10.418;2023-10-08T08:49:34;22.70;51.60
81630;DHT22;71039;49.500;10.418;2023-10-08T08:52:00;22.80;51.20
81630;DHT22;71039;49.500;10.418;2023-10-08T08:54:27;22.80;51.20
81630;DHT22;71039;49.500;10.418;2023-10-08T08:56:54;22.90;50.80
81630;DHT22;71039;49.500;10.418;2023-10-08T08:59:20;23.00;50.40
81630;DHT22;71039;49.500;10.418;2023-10-08T09:01:46;23.00;50.00
81630;DHT22;71039;49.500;10.418;2023-10-08T09:04:13;23.10;49.80
81630;DHT22;71039;49.500;10.418;2023-10-08T09:06:38;23.10;49.50
81630;DHT22;71039;49.500;10.418;2023-10-08T09:09:04;23.00;49.40
81630;DHT22;71039;49.500;10.418;2023-10-08T09:11:30;23.00;49.20
81630;DHT22;71039;49.500;10.418;2023-10-08T09:13:55;23.00;49.00
81630;DHT22;71039;49.500;10.418;2023-10-08T09:16:21;22.90;49.00
81630;DHT22;71039;49.500;10.418;2023-10-08T09:18:47;22.90;49.00
81630;DHT22;71039;49.500;10.418;2023-10-08T09:21:18;22.80;48.90
81630;DHT22;71039;49.500;10.418;2023-10-08T09:23:44;22.80;48.90
81630;DHT22;71039;49.500;10.418;2023-10-08T09:26:10;22.70;48.90
81630;DHT22;71039;49.500;10.418;2023-10-08T09:28:37;22.70;48.90
81630;DHT22;71039;49.500;10.418;2023-10-08T09:31:03;22.60;48.90
81630;DHT22;71039;49.500;10.418;2023-10-08T09:33:29;22.50;48.90
81630;DHT22;71039;49.500;10.418;2023-10-08T09:35:55;22.50;48.90
81630;DHT22;71039;49.500;10.418;2023-10-08T09:38:20;22.50;49.00
81630;DHT22;71039;49.500;10.418;2023-10-08T09:40:46;22.40;49.10
81630;DHT22;71039;49.500;10.418;2023-10-08T09:43:11;22.30;49.20
81630;DHT22;71039;49.500;10.418;2023-10-08T09:45:38;22.30;49.20
81630;DHT22;71039;49.500;10.418;2023-10-08T09:48:11;22.30;49.30
81630;DHT22;71039;49.500;10.418;2023-10-08T09:50:40;22.30;49.30
81630;DHT22;71039;49.500;10.418;2023-10-08T09:53:10;22.30;49.40
81630;DHT22;71039;49.500;10.418;2023-10-08T09:55:36;22.30;49.40
81630;DHT22;71039;49.500;10.418;2023-10-08T09:58:02;22.30;49.50
81630;DHT22;71039;49.500;10.418;2023-10-08T10:00:30;22.30;49.60
81630;DHT22;71039;49.500;10.418;2023-10-08T10:03:02;22.30;49.60
81630;DHT22;71039;49.500;10.418;2023-10-08T10:05:34;22.30;49.50
81630;DHT22;71039;49.500;10.418;2023-10-08T10:08:00;22.40;49.60
81630;DHT22;71039;49.500;10.418;2023-10-08T10:10:30;22.40;49.70
81630;DHT22;71039;49.500;10.418;2023-10-08T10:13:03;22.50;49.50
81630;DHT22;71039;49.500;10.418;2023-10-08T10:15:29;22.50;49.40
81630;DHT22;71039;49.500;10.418;2023-10-08T10:20:39;22.50;49.30
81630;DHT22;71039;49.500;10.418;2023-10-08T10:29:20;22.60;49.30
81630;DHT22;71039;49.500;10.418;2023-10-08T10:31:50;22.60;48.80
81630;DHT22;71039;49.500;10.418;2023-10-08T10:34:18;22.60;49.20
81630;DHT22;71039;49.500;10.418;2023-10-08T10:36:46;22.70;49.10
81630;DHT22;71039;49.500;10.418;2023-10-08T10:39:12;22.70;49.00
81630;DHT22;71039;49.500;10.418;2023-10-08T10:41:38;22.70;49.00
81630;DHT22;71039;49.500;10.418;2023-10-08T10:44:04;22.70;49.00
81630;DHT22;71039;49.500;10.418;2023-10-08T10:46:29;22.70;49.00
81630;DHT22;71039;49.500;10.418;2023-10-08T10:48:55;22.70;48.90
81630;DHT22;71039;49.500;10.418;2023-10-08T10:51:20;22.70;48.90
81630;DHT22;71039;49.500;10.418;2023-10-08T10:53:46;22.70;48.80
81630;DHT22;71039;49.500;10.418;2023-10-08T10:56:15;22.70;48.80
81630;DHT22;71039;49.500;10.418;2023-10-08T10:58:42;22.80;48.80
81630;DHT22;71039;49.500;10.418;2023-10-08T11:01:07;22.80;48.70
81630;DHT22;71039;49.500;10.418;2023-10-08T11:03:33;22.80;48.70
81630;DHT22;71039;49.500;10.418;2023-10-08T11:05:59;22.80;48.80
81630;DHT22;71039;49.500;10.418;2023-10-08T11:08:26;22.80;48.80
81630;DHT22;71039;49.500;10.418;2023-10-08T11:10:53;22.80;48.70
81630;DHT22;71039;49.500;10.418;2023-10-08T11:13:19;22.80;48.70
81630;DHT22;71039;49.500;10.418;2023-10-08T11:15:52;22.80;48.70
81630;DHT22;71039;49.500;10.418;2023-10-08T11:18:22;22.80;48.60
81630;DHT22;71039;49.500;10.418;2023-10-08T11:20:49;22.80;48.60
81630;DHT22;71039;49.500;10.418;2023-10-08T11:23:35;22.80;48.70
81630;DHT22;71039;49.500;10.418;2023-10-08T11:26:05;22.80;48.50
81630;DHT22;71039;49.500;10.418;2023-10-08T11:28:31;22.80;48.80
81630;DHT22;71039;49.500;10.418;2023-10-08T11:30:57;22.90;48.90
81630;DHT22;71039;49.500;10.418;2023-10-08T11:33:22;22.90;48.80
81630;DHT22;71039;49.500;10.418;2023-10-08T11:36:05;22.90;48.80
81630;DHT22;71039;49.500;10.418;2023-10-08T11:38:40;23.00;48.60
81630;DHT22;71039;49.500;10.418;2023-10-08T11:41:16;23.00;48.60
81630;DHT22;71039;49.500;10.418;2023-10-08T11:43:41;23.00;48.70
81630;DHT22;71039;49.500;10.418;2023-10-08T11:46:07;23.10;48.80
81630;DHT22;71039;49.500;10.418;2023-10-08T11:48:32;23.10;48.80
81630;DHT22;71039;49.500;10.418;2023-10-08T11:50:58;23.10;48.80
81630;DHT22;71039;49.500;10.418;2023-10-08T11:53:23;23.20;48.80
81630;DHT22;71039;49.500;10.418;2023-10-08T11:55:49;23.20;48.80
81630;DHT22;71039;49.500;10.418;2023-10-08T11:58:14;23.30;48.80
81630;DHT22;71039;49.500;10.418;2023-10-08T12:00:42;23.30;48.70
81630;DHT22;71039;49.500;10.418;2023-10-08T12:03:07;23.40;48.60
81630;DHT22;71039;49.500;10.418;2023-10-08T12:05:33;23.40;48.40
81630;DHT22;71039;49.500;10.418;2023-10-08T12:07:58;23.50;48.40
81630;DHT22;71039;49.500;10.418;2023-10-08T12:10:24;23.50;48.40
81630;DHT22;71039;49.500;10.418;2023-10-08T12:12:50;23.50;48.40
81630;DHT22;71039;49.500;10.418;2023-10-08T12:15:16;23.60;48.40
81630;DHT22;71039;49.500;10.418;2023-10-08T12:17:41;23.60;48.50
81630;DHT22;71039;49.500;10.418;2023-10-08T12:20:07;23.60;48.50
81630;DHT22;71039;49.500;10.418;2023-10-08T12:22:33;23.60;48.40
81630;DHT22;71039;49.500;10.418;2023-10-08T12:24:58;23.70;48.40
81630;DHT22;71039;49.500;10.418;2023-10-08T12:27:24;23.80;48.40
81630;DHT22;71039;49.500;10.418;2023-10-08T12:29:49;23.80;48.30
81630;DHT22;71039;49.500;10.418;2023-10-08T12:32:15;23.80;48.20
81630;DHT22;71039;49.500;10.418;2023-10-08T12:34:40;23.90;48.10
81630;DHT22;71039;49.500;10.418;2023-10-08T12:37:06;23.90;48.10
81630;DHT22;71039;49.500;10.418;2023-10-08T12:39:31;23.90;48.00
81630;DHT22;71039;49.500;10.418;2023-10-08T12:41:57;24.00;47.90
81630;DHT22;71039;49.500;10.418;2023-10-08T12:44:22;24.00;48.00
81630;DHT22;71039;49.500;10.418;2023-10-08T12:46:48;24.00;47.90
81630;DHT22;71039;49.500;10.418;2023-10-08T12:49:13;24.00;47.90
81630;DHT22;71039;49.500;10.418;2023-10-08T12:51:39;24.00;47.80
81630;DHT22;71039;49.500;10.418;2023-10-08T12:54:04;24.00;47.80
81630;DHT22;71039;49.500;10.418;2023-10-08T12:56:30;24.00;47.80
81630;DHT22;71039;49.500;10.418;2023-10-08T12:58:56;24.00;47.80
81630;DHT22;71039;49.500;10.418;2023-10-08T13:01:21;24.10;47.70
81630;DHT22;71039;49.500;10.418;2023-10-08T13:03:47;24.00;47.60
81630;DHT22;71039;49.500;10.418;2023-10-08T13:06:22;24.10;47.60
81630;DHT22;71039;49.500;10.418;2023-10-08T13:08:51;24.10;47.50
81630;DHT22;71039;49.500;10.418;2023-10-08T13:11:17;24.10;47.50
81630;DHT22;71039;49.500;10.418;2023-10-08T13:13:42;24.10;47.50
81630;DHT22;71039;49.500;10.418;2023-10-08T13:16:08;24.10;47.50
81630;DHT22;71039;49.500;10.418;2023-10-08T13:18:34;24.10;47.50
81630;DHT22;71039;49.500;10.418;2023-10-08T13:20:59;24.00;47.50
81630;DHT22;71039;49.500;10.418;2023-10-08T13:23:25;24.10;47.60
81630;DHT22;71039;49.500;10.418;2023-10-08T13:25:50;24.00;47.60
81630;DHT22;71039;49.500;10.418;2023-10-08T13:28:16;24.10;47.50
81630;DHT22;71039;49.500;10.418;2023-10-08T13:30:41;24.00;47.50
81630;DHT22;71039;49.500;10.418;2023-10-08T13:33:07;24.00;47.50
81630;DHT22;71039;49.500;10.418;2023-10-08T13:35:32;24.00;47.40
81630;DHT22;71039;49.500;10.418;2023-10-08T13:37:58;24.00;47.40
81630;DHT22;71039;49.500;10.418;2023-10-08T13:40:23;24.00;47.40
81630;DHT22;71039;49.500;10.418;2023-10-08T13:42:49;24.00;47.50
81630;DHT22;71039;49.500;10.418;2023-10-08T13:45:14;24.00;47.50
81630;DHT22;71039;49.500;10.418;2023-10-08T13:47:40;24.00;47.50
81630;DHT22;71039;49.500;10.418;2023-10-08T13:50:06;24.00;47.50
81630;DHT22;71039;49.500;10.418;2023-10-08T13:52:31;23.90;47.50
81630;DHT22;71039;49.500;10.418;2023-10-08T13:54:57;23.90;47.50
81630;DHT22;71039;49.500;10.418;2023-10-08T13:57:22;23.90;47.50
81630;DHT22;71039;49.500;10.418;2023-10-08T13:59:48;23.90;47.50
81630;DHT22;71039;49.500;10.418;2023-10-08T14:02:17;23.90;47.50
81630;DHT22;71039;49.500;10.418;2023-10-08T14:04:42;23.80;47.50
81630;DHT22;71039;49.500;10.418;2023-10-08T14:07:09;23.80;47.60
81630;DHT22;71039;49.500;10.418;2023-10-08T14:09:34;23.80;47.50
81630;DHT22;71039;49.500;10.418;2023-10-08T14:12:00;23.70;47.50
81630;DHT22;71039;49.500;10.418;2023-10-08T14:14:25;23.70;47.50
81630;DHT22;71039;49.500;10.418;2023-10-08T14:16:51;23.60;47.50
81630;DHT22;71039;49.500;10.418;2023-10-08T14:19:16;23.60;47.60
81630;DHT22;71039;49.500;10.418;2023-10-08T14:21:42;23.60;47.60
81630;DHT22;71039;49.500;10.418;2023-10-08T14:24:07;23.50;47.70
81630;DHT22;71039;49.500;10.418;2023-10-08T14:26:33;23.50;47.70
81630;DHT22;71039;49.500;10.418;2023-10-08T14:28:58;23.50;47.70
81630;DHT22;71039;49.500;10.418;2023-10-08T14:31:24;23.40;47.90
81630;DHT22;71039;49.500;10.418;2023-10-08T14:33:50;23.40;48.00
81630;DHT22;71039;49.500;10.418;2023-10-08T14:36:15;23.40;48.10
81630;DHT22;71039;49.500;10.418;2023-10-08T14:38:41;23.30;48.20
81630;DHT22;71039;49.500;10.418;2023-10-08T14:41:06;23.30;48.20
81630;DHT22;71039;49.500;10.418;2023-10-08T14:43:32;23.30;48.40
81630;DHT22;71039;49.500;10.418;2023-10-08T14:45:57;23.30;48.50
81630;DHT22;71039;49.500;10.418;2023-10-08T14:48:24;23.30;48.50
81630;DHT22;71039;49.500;10.418;2023-10-08T14:50:49;23.30;48.40
81630;DHT22;71039;49.500;10.418;2023-10-08T14:53:15;23.30;48.40
81630;DHT22;71039;49.500;10.418;2023-10-08T14:55:40;23.20;48.30
81630;DHT22;71039;49.500;10.418;2023-10-08T14:58:07;23.30;48.40
81630;DHT22;71039;49.500;10.418;2023-10-08T15:00:33;23.20;48.30
81630;DHT22;71039;49.500;10.418;2023-10-08T15:02:59;23.20;48.30
81630;DHT22;71039;49.500;10.418;2023-10-08T15:05:25;23.20;48.40
81630;DHT22;71039;49.500;10.418;2023-10-08T15:07:51;23.20;48.30
81630;DHT22;71039;49.500;10.418;2023-10-08T15:10:17;23.20;48.40
81630;DHT22;71039;49.500;10.418;2023-10-08T15:12:42;23.10;48.40
81630;DHT22;71039;49.500;10.418;2023-10-08T15:15:08;23.10;48.50
81630;DHT22;71039;49.500;10.418;2023-10-08T15:17:34;23.10;48.60